createdAt,value
2023-01-30T00:00:19.505Z,97.52
2023-01-30T00:10:25.968Z,97.84
2023-01-30T00:20:29.199Z,97.95
2023-01-30T00:30:33.250Z,98.10
2023-01-30T00:40:35.871Z,97.68
2023-01-30T00:50:45.826Z,98.32
2023-01-30T01:00:48.689Z,98.87
2023-01-30T01:10:52.756Z,98.83
2023-01-30T01:20:55.394Z,100.38
2023-01-30T01:30:59.512Z,104.02
2023-01-30T01:41:06.196Z,106.14
2023-01-30T01:51:16.604Z,106.91
2023-01-30T02:01:19.285Z,107.69
2023-01-30T02:11:30.508Z,107.58
2023-01-30T02:22:13.288Z,107.72
2023-01-30T02:32:25.894Z,107.86
2023-01-30T02:42:35.512Z,108.04
2023-01-30T02:52:40.672Z,108.15
2023-01-30T03:03:07.459Z,108.22
2023-01-30T03:13:18.532Z,107.46
2023-01-30T03:23:21.329Z,107.08
2023-01-30T03:33:25.298Z,105.72
2023-01-30T03:43:27.968Z,105.84
2023-01-30T03:53:31.956Z,101.85
2023-01-30T04:03:35.485Z,100.64
2023-01-30T04:13:39.429Z,101.12
2023-01-30T04:23:42.621Z,99.10
2023-01-30T04:33:46.621Z,97.56
2023-01-30T04:43:49.296Z,97.84
2023-01-30T04:53:53.374Z,96.23
2023-01-30T05:03:56.395Z,94.33
2023-01-30T05:14:00.743Z,93.72
2023-01-30T05:24:03.372Z,93.75
2023-01-30T05:34:07.341Z,93.90
2023-01-30T05:44:11.711Z,92.60
2023-01-30T05:54:16.630Z,91.82
2023-01-30T06:04:19.258Z,89.70
2023-01-30T06:14:23.249Z,91.36
2023-01-30T06:24:25.853Z,90.72
2023-01-30T06:34:29.839Z,92.46
2023-01-30T06:44:32.470Z,90.54
2023-01-30T06:54:36.484Z,91.24
2023-01-30T07:04:39.072Z,90.20
2023-01-30T07:14:43.078Z,90.10
2023-01-30T07:24:45.811Z,89.28
2023-01-30T07:34:49.812Z,89.49
2023-01-30T07:44:52.422Z,90.01
2023-01-30T07:54:56.500Z,88.82
2023-01-30T08:04:59.164Z,88.88
2023-01-30T08:15:03.227Z,85.91
2023-01-30T08:25:06.788Z,85.57
2023-01-30T08:35:11.617Z,85.03
2023-01-30T08:45:14.393Z,86.04
2023-01-30T08:55:19.001Z,83.74
2023-01-30T09:05:21.611Z,84.60
2023-01-30T09:15:25.585Z,80.26
2023-01-30T09:25:28.348Z,80.51
2023-01-30T09:35:32.510Z,80.89
2023-01-30T09:45:46.620Z,79.69
2023-01-30T09:55:51.168Z,88.10
2023-01-30T10:05:56.819Z,87.06
2023-01-30T10:16:07.178Z,84.30
2023-01-30T10:26:12.727Z,88.86
2023-01-30T10:36:23.698Z,95.59
2023-01-30T10:46:40.537Z,98.67
2023-01-30T10:56:51.845Z,99.72
2023-01-30T11:06:56.696Z,96.50
2023-01-30T11:17:02.500Z,92.89
2023-01-30T11:27:11.442Z,89.45
2023-01-30T11:37:24.556Z,85.88
2023-01-30T11:47:29.680Z,89.23
2023-01-30T11:57:41.262Z,86.61
2023-01-30T12:07:46.492Z,86.00
2023-01-30T12:17:58.357Z,87.13
2023-01-30T12:28:05.496Z,89.09
2023-01-30T12:38:23.077Z,87.20
2023-01-30T12:49:13.733Z,85.26
2023-01-30T12:59:20.123Z,85.52
2023-01-30T13:09:40.243Z,84.25
2023-01-30T13:19:49.908Z,83.45
2023-01-30T13:29:54.030Z,83.30
2023-01-30T13:40:00.498Z,84.48
2023-01-30T13:50:24.446Z,81.62
2023-01-30T14:00:32.110Z,76.23
2023-01-30T14:10:35.833Z,77.71
2023-01-30T14:20:45.312Z,72.16
2023-01-30T14:30:49.405Z,75.83
2023-01-30T14:41:27.156Z,80.43
2023-01-30T14:51:35.813Z,82.69
2023-01-30T15:02:05.991Z,83.47
2023-01-30T15:12:27.534Z,83.10
2023-01-30T15:22:40.506Z,81.84
2023-01-30T15:32:45.488Z,83.42
2023-01-30T15:42:50.957Z,84.67
2023-01-30T15:52:56.467Z,86.93
2023-01-30T16:03:01.752Z,84.46
2023-01-30T16:13:05.792Z,81.46
2023-01-30T16:23:21.415Z,83.68
2023-01-30T16:33:25.673Z,87.52
2023-01-30T16:43:29.944Z,86.19
2023-01-30T16:53:34.715Z,90.15
2023-01-30T17:03:39.351Z,89.90
2023-01-30T17:13:43.869Z,88.21
2023-01-30T17:23:49.847Z,87.81
2023-01-30T17:33:54.113Z,87.79
2023-01-30T17:43:56.914Z,88.42
2023-01-30T17:54:00.954Z,87.03
2023-01-30T18:04:03.696Z,87.06
2023-01-30T18:14:07.690Z,88.83
2023-01-30T18:24:10.488Z,90.24
2023-01-30T18:34:14.563Z,89.82
2023-01-30T18:44:17.240Z,90.17
2023-01-30T18:54:21.220Z,90.14
2023-01-30T19:04:23.880Z,89.44
2023-01-30T19:14:27.978Z,87.88
2023-01-30T19:24:30.618Z,87.12
2023-01-30T19:34:34.574Z,86.68
2023-01-30T19:44:37.674Z,85.34
2023-01-30T19:54:41.754Z,86.09
2023-01-30T20:04:44.406Z,85.34
2023-01-30T20:14:48.400Z,84.87
2023-01-30T20:24:51.088Z,85.43
2023-01-30T20:34:55.083Z,84.77
2023-01-30T20:44:57.783Z,83.13
2023-01-30T20:55:01.846Z,83.18
2023-01-30T21:05:06.113Z,83.26
2023-01-30T21:15:10.697Z,87.83
2023-01-30T21:25:13.378Z,91.49
2023-01-30T21:35:18.217Z,94.69
2023-01-30T21:45:21.822Z,96.04
2023-01-30T21:55:26.946Z,94.81
2023-01-30T22:05:36.537Z,94.16
2023-01-30T22:15:40.756Z,94.14
2023-01-30T22:25:45.069Z,94.35
2023-01-30T22:35:51.185Z,93.94
2023-01-30T22:46:00.721Z,92.57
2023-01-30T22:56:06.788Z,92.97
2023-01-30T23:06:11.985Z,93.47
2023-01-30T23:16:17.179Z,94.72
2023-01-30T23:26:19.909Z,94.85
2023-01-30T23:36:24.334Z,95.16
2023-01-30T23:46:28.483Z,95.42
2023-01-30T23:56:35.485Z,95.77
